sensor_id;sensor_type;location;lat;lon;timestamp;temperature;humidity
47252;DHT22;32991;51.374;11.586;2022-07-22T00:02:10;19.60;99.90
47252;DHT22;32991;51.374;11.586;2022-07-22T00:04:37;19.60;99.90
47252;DHT22;32991;51.374;11.586;2022-07-22T00:07:04;19.60;99.90
47252;DHT22;32991;51.374;11.586;2022-07-22T00:09:31;19.60;99.90
47252;DHT22;32991;51.374;11.586;2022-07-22T00:11:59;19.60;99.90
47252;DHT22;32991;51.374;11.586;2022-07-22T00:14:26;19.60;99.90
47252;DHT22;32991;51.374;11.586;2022-07-22T00:16:52;19.50;99.90
47252;DHT22;32991;51.374;11.586;2022-07-22T00:19:19;19.50;99.90
47252;DHT22;32991;51.374;11.586;2022-07-22T00:21:46;19.50;99.90
47252;DHT22;32991;51.374;11.586;2022-07-22T00:24:13;19.50;99.90
47252;DHT22;32991;51.374;11.586;2022-07-22T00:26:39;19.60;99.90
47252;DHT22;32991;51.374;11.586;2022-07-22T00:29:06;19.50;99.90
47252;DHT22;32991;51.374;11.586;2022-07-22T00:31:33;19.60;99.90
47252;DHT22;32991;51.374;11.586;2022-07-22T00:34:01;19.60;99.90
47252;DHT22;32991;51.374;11.586;2022-07-22T00:36:31;19.60;99.90
47252;DHT22;32991;51.374;11.586;2022-07-22T00:38:58;19.60;99.90
47252;DHT22;32991;51.374;11.586;2022-07-22T00:41:26;19.50;99.90
47252;DHT22;32991;51.374;11.586;2022-07-22T00:44:01;19.50;99.90
47252;DHT22;32991;51.374;11.586;2022-07-22T00:46:31;19.50;99.90
47252;DHT22;32991;51.374;11.586;2022-07-22T00:48:59;19.50;99.90
47252;DHT22;32991;51.374;11.586;2022-07-22T00:51:27;19.50;99.90
47252;DHT22;32991;51.374;11.586;2022-07-22T00:53:58;19.50;99.90
47252;DHT22;32991;51.374;11.586;2022-07-22T00:56:26;19.50;99.90
47252;DHT22;32991;51.374;11.586;2022-07-22T00:58:55;19.50;99.90
47252;DHT22;32991;51.374;11.586;2022-07-22T01:01:23;19.50;99.90
47252;DHT22;32991;51.374;11.586;2022-07-22T01:03:50;19.50;99.90
47252;DHT22;32991;51.374;11.586;2022-07-22T01:06:26;19.40;99.90
47252;DHT22;32991;51.374;11.586;2022-07-22T01:08:54;19.50;99.90
47252;DHT22;32991;51.374;11.586;2022-07-22T01:11:23;19.50;99.90
47252;DHT22;32991;51.374;11.586;2022-07-22T01:13:50;19.50;99.90
47252;DHT22;32991;51.374;11.586;2022-07-22T01:16:17;19.50;99.90
47252;DHT22;32991;51.374;11.586;2022-07-22T01:18:45;19.50;99.90
47252;DHT22;32991;51.374;11.586;2022-07-22T01:21:14;19.60;99.90
47252;DHT22;32991;51.374;11.586;2022-07-22T01:23:41;19.60;99.90
47252;DHT22;32991;51.374;11.586;2022-07-22T01:26:08;19.50;99.90
47252;DHT22;32991;51.374;11.586;2022-07-22T01:28:36;19.50;99.90
47252;DHT22;32991;51.374;11.586;2022-07-22T01:31:03;19.40;99.90
47252;DHT22;32991;51.374;11.586;2022-07-22T01:33:30;19.40;99.90
47252;DHT22;32991;51.374;11.586;2022-07-22T01:35:57;19.40;99.90
47252;DHT22;32991;51.374;11.586;2022-07-22T01:38:24;19.30;99.90
47252;DHT22;32991;51.374;11.586;2022-07-22T01:40:51;19.30;99.90
47252;DHT22;32991;51.374;11.586;2022-07-22T01:43:18;19.30;99.90
47252;DHT22;32991;51.374;11.586;2022-07-22T01:45:50;19.30;99.90
47252;DHT22;32991;51.374;11.586;2022-07-22T01:48:19;19.30;99.90
47252;DHT22;32991;51.374;11.586;2022-07-22T01:50:46;19.30;99.90
47252;DHT22;32991;51.374;11.586;2022-07-22T01:53:15;19.40;99.90
47252;DHT22;32991;51.374;11.586;2022-07-22T01:55:44;19.30;99.90
47252;DHT22;32991;51.374;11.586;2022-07-22T01:58:11;19.30;99.90
47252;DHT22;32991;51.374;11.586;2022-07-22T02:00:38;19.20;99.90
47252;DHT22;32991;51.374;11.586;2022-07-22T02:03:06;19.20;99.90
47252;DHT22;32991;51.374;11.586;2022-07-22T02:05:33;19.20;99.90
47252;DHT22;32991;51.374;11.586;2022-07-22T02:08:08;19.20;99.90
47252;DHT22;32991;51.374;11.586;2022-07-22T02:10:59;19.20;99.90
47252;DHT22;32991;51.374;11.586;2022-07-22T02:13:26;19.20;99.90
47252;DHT22;32991;51.374;11.586;2022-07-22T02:15:52;19.20;99.90
47252;DHT22;32991;51.374;11.586;2022-07-22T02:18:20;19.20;99.90
47252;DHT22;32991;51.374;11.586;2022-07-22T02:20:46;19.20;99.90
47252;DHT22;32991;51.374;11.586;2022-07-22T02:23:14;19.10;99.90
47252;DHT22;32991;51.374;11.586;2022-07-22T02:25:41;19.10;99.90
47252;DHT22;32991;51.374;11.586;2022-07-22T02:28:09;19.10;99.90
47252;DHT22;32991;51.374;11.586;2022-07-22T02:30:37;19.10;99.90
47252;DHT22;32991;51.374;11.586;2022-07-22T02:33:04;19.10;99.90
47252;DHT22;32991;51.374;11.586;2022-07-22T02:35:31;19.10;99.90
47252;DHT22;32991;51.374;11.586;2022-07-22T02:37:58;19.10;99.90
47252;DHT22;32991;51.374;11.586;2022-07-22T02:40:25;19.10;99.90
47252;DHT22;32991;51.374;11.586;2022-07-22T02:42:52;19.00;99.90
47252;DHT22;32991;51.374;11.586;2022-07-22T02:45:19;19.00;99.90
47252;DHT22;32991;51.374;11.586;2022-07-22T02:47:51;19.00;99.90
47252;DHT22;32991;51.374;11.586;2022-07-22T02:50:19;19.00;99.90
47252;DHT22;32991;51.374;11.586;2022-07-22T02:52:46;19.00;99.90
47252;DHT22;32991;51.374;11.586;2022-07-22T02:55:15;19.00;99.90
47252;DHT22;32991;51.374;11.586;2022-07-22T02:57:42;19.00;99.90
47252;DHT22;32991;51.374;11.586;2022-07-22T03:00:14;19.00;99.90
47252;DHT22;32991;51.374;11.586;2022-07-22T03:02:41;19.00;99.90
47252;DHT22;32991;51.374;11.586;2022-07-22T03:05:08;19.00;99.90
47252;DHT22;32991;51.374;11.586;2022-07-22T03:07:42;19.00;99.90
47252;DHT22;32991;51.374;11.586;2022-07-22T03:10:11;19.00;99.90
47252;DHT22;32991;51.374;11.586;2022-07-22T03:12:38;19.10;99.90
47252;DHT22;32991;51.374;11.586;2022-07-22T03:15:06;19.10;99.90
47252;DHT22;32991;51.374;11.586;2022-07-22T03:17:36;19.20;99.90
47252;DHT22;32991;51.374;11.586;2022-07-22T03:20:06;19.20;99.90
47252;DHT22;32991;51.374;11.586;2022-07-22T03:22:34;19.20;99.90
47252;DHT22;32991;51.374;11.586;2022-07-22T03:25:01;19.20;99.90
47252;DHT22;32991;51.374;11.586;2022-07-22T03:27:28;19.20;99.90
47252;DHT22;32991;51.374;11.586;2022-07-22T03:29:55;19.20;99.90
47252;DHT22;32991;51.374;11.586;2022-07-22T03:32:22;19.20;99.90
47252;DHT22;32991;51.374;11.586;2022-07-22T03:34:49;19.20;99.90
47252;DHT22;32991;51.374;11.586;2022-07-22T03:37:16;19.30;99.90
47252;DHT22;32991;51.374;11.586;2022-07-22T03:39:44;19.30;99.90
47252;DHT22;32991;51.374;11.586;2022-07-22T03:42:11;19.30;99.90
47252;DHT22;32991;51.374;11.586;2022-07-22T03:44:44;19.30;99.90
47252;DHT22;32991;51.374;11.586;2022-07-22T03:47:11;19.30;99.90
47252;DHT22;32991;51.374;11.586;2022-07-22T03:49:38;19.30;99.90
47252;DHT22;32991;51.374;11.586;2022-07-22T03:52:08;19.30;99.90
47252;DHT22;32991;51.374;11.586;2022-07-22T03:54:34;19.30;99.90
47252;DHT22;32991;51.374;11.586;2022-07-22T03:57:01;19.40;99.90
47252;DHT22;32991;51.374;11.586;2022-07-22T03:59:28;19.40;99.90
47252;DHT22;32991;51.374;11.586;2022-07-22T04:01:55;19.40;99.90
47252;DHT22;32991;51.374;11.586;2022-07-22T04:04:22;19.40;99.90
47252;DHT22;32991;51.374;11.586;2022-07-22T04:06:49;19.40;99.90
47252;DHT22;32991;51.374;11.586;2022-07-22T04:09:23;19.50;99.90
47252;DHT22;32991;51.374;11.586;2022-07-22T04:11:50;19.40;99.90
47252;DHT22;32991;51.374;11.586;2022-07-22T04:14:21;19.40;99.90
47252;DHT22;32991;51.374;11.586;2022-07-22T04:16:48;19.40;99.90
47252;DHT22;32991;51.374;11.586;2022-07-22T04:19:15;19.40;99.90
47252;DHT22;32991;51.374;11.586;2022-07-22T04:21:53;19.40;99.90
47252;DHT22;32991;51.374;11.586;2022-07-22T04:24:23;19.40;99.90
47252;DHT22;32991;51.374;11.586;2022-07-22T04:26:50;19.40;99.90
47252;DHT22;32991;51.374;11.586;2022-07-22T04:29:16;19.50;99.90
47252;DHT22;32991;51.374;11.586;2022-07-22T04:31:43;19.50;99.90
47252;DHT22;32991;51.374;11.586;2022-07-22T04:34:15;19.40;99.90
47252;DHT22;32991;51.374;11.586;2022-07-22T04:36:42;19.40;99.90
47252;DHT22;32991;51.374;11.586;2022-07-22T04:39:09;19.30;99.90
47252;DHT22;32991;51.374;11.586;2022-07-22T04:41:40;19.30;99.90
47252;DHT22;32991;51.374;11.586;2022-07-22T04:44:07;19.30;99.90
47252;DHT22;32991;51.374;11.586;2022-07-22T04:46:34;19.20;99.90
47252;DHT22;32991;51.374;11.586;2022-07-22T04:49:01;19.30;99.90
47252;DHT22;32991;51.374;11.586;2022-07-22T04:51:28;19.40;99.90
47252;DHT22;32991;51.374;11.586;2022-07-22T04:54:01;19.50;99.90
47252;DHT22;32991;51.374;11.586;2022-07-22T04:56:28;19.60;99.90
47252;DHT22;32991;51.374;11.586;2022-07-22T04:58:55;19.70;99.90
47252;DHT22;32991;51.374;11.586;2022-07-22T05:01:27;19.70;99.90
47252;DHT22;32991;51.374;11.586;2022-07-22T05:03:55;19.70;99.90
47252;DHT22;32991;51.374;11.586;2022-07-22T05:06:22;19.70;99.90
47252;DHT22;32991;51.374;11.586;2022-07-22T05:08:51;19.70;99.90
47252;DHT22;32991;51.374;11.586;2022-07-22T05:11:19;19.70;99.90
47252;DHT22;32991;51.374;11.586;2022-07-22T05:13:47;19.70;99.90
47252;DHT22;32991;51.374;11.586;2022-07-22T05:16:14;19.70;99.90
47252;DHT22;32991;51.374;11.586;2022-07-22T05:18:41;19.60;99.90
47252;DHT22;32991;51.374;11.586;2022-07-22T05:21:12;19.60;99.90
47252;DHT22;32991;51.374;11.586;2022-07-22T05:23:39;19.80;99.90
47252;DHT22;32991;51.374;11.586;2022-07-22T05:26:06;19.90;99.90
47252;DHT22;32991;51.374;11.586;2022-07-22T05:28:34;20.00;99.90
47252;DHT22;32991;51.374;11.586;2022-07-22T05:31:00;20.10;99.90
47252;DHT22;32991;51.374;11.586;2022-07-22T05:33:28;20.10;99.90
47252;DHT22;32991;51.374;11.586;2022-07-22T05:36:02;20.10;99.90
47252;DHT22;32991;51.374;11.586;2022-07-22T05:38:35;20.00;99.90
47252;DHT22;32991;51.374;11.586;2022-07-22T05:41:02;20.00;99.90
47252;DHT22;32991;51.374;11.586;2022-07-22T05:43:30;20.00;99.90
47252;DHT22;32991;51.374;11.586;2022-07-22T05:45:57;20.00;99.90
47252;DHT22;32991;51.374;11.586;2022-07-22T05:48:24;20.00;99.90
47252;DHT22;32991;51.374;11.586;2022-07-22T05:50:51;20.00;99.90
47252;DHT22;32991;51.374;11.586;2022-07-22T05:53:18;20.20;99.90
47252;DHT22;32991;51.374;11.586;2022-07-22T05:55:45;20.80;99.90
47252;DHT22;32991;51.374;11.586;2022-07-22T05:58:12;21.40;99.90
47252;DHT22;32991;51.374;11.586;2022-07-22T06:00:39;22.00;99.90
47252;DHT22;32991;51.374;11.586;2022-07-22T06:03:06;22.70;99.90
47252;DHT22;32991;51.374;11.586;2022-07-22T06:05:33;23.40;99.90
47252;DHT22;32991;51.374;11.586;2022-07-22T06:08:07;23.90;99.90
47252;DHT22;32991;51.374;11.586;2022-07-22T06:10:41;24.50;99.90
47252;DHT22;32991;51.374;11.586;2022-07-22T06:13:08;24.80;99.90
47252;DHT22;32991;51.374;11.586;2022-07-22T06:15:36;25.10;99.80
47252;DHT22;32991;51.374;11.586;2022-07-22T06:18:03;25.50;98.80
47252;DHT22;32991;51.374;11.586;2022-07-22T06:20:30;26.00;96.40
47252;DHT22;32991;51.374;11.586;2022-07-22T06:22:57;26.10;95.40
47252;DHT22;32991;51.374;11.586;2022-07-22T06:25:24;26.20;94.70
47252;DHT22;32991;51.374;11.586;2022-07-22T06:28:20;26.30;93.50
47252;DHT22;32991;51.374;11.586;2022-07-22T06:30:47;26.10;93.50
47252;DHT22;32991;51.374;11.586;2022-07-22T06:33:16;26.10;92.70
47252;DHT22;32991;51.374;11.586;2022-07-22T06:35:43;26.00;92.80
47252;DHT22;32991;51.374;11.586;2022-07-22T06:38:10;26.10;92.70
47252;DHT22;32991;51.374;11.586;2022-07-22T06:41:21;26.20;92.40
47252;DHT22;32991;51.374;11.586;2022-07-22T06:44:03;26.50;91.90
47252;DHT22;32991;51.374;11.586;2022-07-22T06:46:48;26.70;91.50
47252;DHT22;32991;51.374;11.586;2022-07-22T06:49:17;26.90;91.10
47252;DHT22;32991;51.374;11.586;2022-07-22T06:51:45;26.80;90.50
47252;DHT22;32991;51.374;11.586;2022-07-22T06:54:11;26.20;91.20
47252;DHT22;32991;51.374;11.586;2022-07-22T06:56:38;25.60;92.20
47252;DHT22;32991;51.374;11.586;2022-07-22T06:59:07;25.10;92.80
47252;DHT22;32991;51.374;11.586;2022-07-22T07:01:35;24.50;93.10
47252;DHT22;32991;51.374;11.586;2022-07-22T07:04:03;24.20;93.90
47252;DHT22;32991;51.374;11.586;2022-07-22T07:06:30;24.00;94.10
47252;DHT22;32991;51.374;11.586;2022-07-22T07:09:08;23.90;94.70
47252;DHT22;32991;51.374;11.586;2022-07-22T07:11:40;24.00;95.20
47252;DHT22;32991;51.374;11.586;2022-07-22T07:14:15;24.10;95.30
47252;DHT22;32991;51.374;11.586;2022-07-22T07:16:42;24.10;95.20
47252;DHT22;32991;51.374;11.586;2022-07-22T07:19:10;24.10;95.50
47252;DHT22;32991;51.374;11.586;2022-07-22T07:21:37;24.10;95.80
47252;DHT22;32991;51.374;11.586;2022-07-22T07:24:04;24.20;95.50
47252;DHT22;32991;51.374;11.586;2022-07-22T07:26:31;24.30;95.20
47252;DHT22;32991;51.374;11.586;2022-07-22T07:28:59;24.20;95.20
47252;DHT22;32991;51.374;11.586;2022-07-22T07:31:31;24.10;94.90
47252;DHT22;32991;51.374;11.586;2022-07-22T07:34:03;24.10;95.30
47252;DHT22;32991;51.374;11.586;2022-07-22T07:36:30;24.30;94.90
47252;DHT22;32991;51.374;11.586;2022-07-22T07:38:57;24.50;94.40
47252;DHT22;32991;51.374;11.586;2022-07-22T07:41:25;24.80;94.30
47252;DHT22;32991;51.374;11.586;2022-07-22T07:43:52;25.50;93.40
47252;DHT22;32991;51.374;11.586;2022-07-22T07:46:19;26.40;92.50
47252;DHT22;32991;51.374;11.586;2022-07-22T07:48:46;26.80;90.80
47252;DHT22;32991;51.374;11.586;2022-07-22T07:51:15;26.80;90.20
47252;DHT22;32991;51.374;11.586;2022-07-22T07:53:42;27.00;89.90
47252;DHT22;32991;51.374;11.586;2022-07-22T07:56:10;27.10;88.90
47252;DHT22;32991;51.374;11.586;2022-07-22T07:58:37;27.10;88.40
47252;DHT22;32991;51.374;11.586;2022-07-22T08:01:06;26.90;89.10
47252;DHT22;32991;51.374;11.586;2022-07-22T08:03:35;26.70;89.80
47252;DHT22;32991;51.374;11.586;2022-07-22T08:06:03;27.00;88.30
47252;DHT22;32991;51.374;11.586;2022-07-22T08:08:30;27.70;87.20
47252;DHT22;32991;51.374;11.586;2022-07-22T08:11:03;28.50;84.60
47252;DHT22;32991;51.374;11.586;2022-07-22T08:13:48;29.20;81.70
47252;DHT22;32991;51.374;11.586;2022-07-22T08:16:28;29.50;80.30
47252;DHT22;32991;51.374;11.586;2022-07-22T08:18:55;29.90;79.70
47252;DHT22;32991;51.374;11.586;2022-07-22T08:21:24;30.30;78.00
47252;DHT22;32991;51.374;11.586;2022-07-22T08:23:56;30.70;75.30
47252;DHT22;32991;51.374;11.586;2022-07-22T08:26:25;31.10;74.00
47252;DHT22;32991;51.374;11.586;2022-07-22T08:28:58;31.10;72.30
47252;DHT22;32991;51.374;11.586;2022-07-22T08:31:27;31.10;72.00
47252;DHT22;32991;51.374;11.586;2022-07-22T08:33:56;31.50;71.00
47252;DHT22;32991;51.374;11.586;2022-07-22T08:36:26;32.00;69.50
47252;DHT22;32991;51.374;11.586;2022-07-22T08:38:53;31.50;68.80
47252;DHT22;32991;51.374;11.586;2022-07-22T08:41:22;30.70;70.70
47252;DHT22;32991;51.374;11.586;2022-07-22T08:43:50;30.70;71.10
47252;DHT22;32991;51.374;11.586;2022-07-22T08:46:18;31.20;70.10
47252;DHT22;32991;51.374;11.586;2022-07-22T08:49:15;31.70;68.40
47252;DHT22;32991;51.374;11.586;2022-07-22T08:52:03;32.00;67.10
47252;DHT22;32991;51.374;11.586;2022-07-22T08:54:45;31.90;66.80
47252;DHT22;32991;51.374;11.586;2022-07-22T08:57:13;31.90;67.20
47252;DHT22;32991;51.374;11.586;2022-07-22T08:59:55;32.10;66.30
47252;DHT22;32991;51.374;11.586;2022-07-22T09:02:22;31.50;67.20
47252;DHT22;32991;51.374;11.586;2022-07-22T09:04:58;30.70;68.00
47252;DHT22;32991;51.374;11.586;2022-07-22T09:07:46;29.80;69.60
47252;DHT22;32991;51.374;11.586;2022-07-22T09:10:21;28.90;72.70
47252;DHT22;32991;51.374;11.586;2022-07-22T09:13:26;29.30;72.60
47252;DHT22;32991;51.374;11.586;2022-07-22T09:16:12;30.50;70.30
47252;DHT22;32991;51.374;11.586;2022-07-22T09:18:51;31.50;67.60
47252;DHT22;32991;51.374;11.586;2022-07-22T09:21:38;31.80;65.70
47252;DHT22;32991;51.374;11.586;2022-07-22T09:24:34;32.40;65.70
47252;DHT22;32991;51.374;11.586;2022-07-22T09:27:27;33.80;63.20
47252;DHT22;32991;51.374;11.586;2022-07-22T09:30:24;34.30;61.20
47252;DHT22;32991;51.374;11.586;2022-07-22T09:33:03;35.00;59.80
47252;DHT22;32991;51.374;11.586;2022-07-22T09:35:42;35.60;58.60
47252;DHT22;32991;51.374;11.586;2022-07-22T09:38:18;36.40;56.90
47252;DHT22;32991;51.374;11.586;2022-07-22T09:40:46;36.30;56.70
47252;DHT22;32991;51.374;11.586;2022-07-22T09:43:16;36.00;55.30
47252;DHT22;32991;51.374;11.586;2022-07-22T09:48:17;33.30;58.90
47252;DHT22;32991;51.374;11.586;2022-07-22T09:51:04;32.50;61.00
47252;DHT22;32991;51.374;11.586;2022-07-22T09:53:48;32.50;61.60
47252;DHT22;32991;51.374;11.586;2022-07-22T09:56:19;33.50;60.40
47252;DHT22;32991;51.374;11.586;2022-07-22T09:58:46;34.50;58.60
47252;DHT22;32991;51.374;11.586;2022-07-22T10:01:34;34.60;57.30
47252;DHT22;32991;51.374;11.586;2022-07-22T10:04:05;33.20;58.50
47252;DHT22;32991;51.374;11.586;2022-07-22T10:06:34;31.80;60.50
47252;DHT22;32991;51.374;11.586;2022-07-22T10:09:06;30.70;63.10
47252;DHT22;32991;51.374;11.586;2022-07-22T10:11:41;29.90;64.80
47252;DHT22;32991;51.374;11.586;2022-07-22T10:14:14;29.30;66.10
47252;DHT22;32991;51.374;11.586;2022-07-22T10:16:48;29.30;67.00
47252;DHT22;32991;51.374;11.586;2022-07-22T10:19:15;29.70;66.50
47252;DHT22;32991;51.374;11.586;2022-07-22T10:21:43;30.30;65.70
47252;DHT22;32991;51.374;11.586;2022-07-22T10:24:12;30.50;64.50
47252;DHT22;32991;51.374;11.586;2022-07-22T10:29:38;29.30;66.60
47252;DHT22;32991;51.374;11.586;2022-07-22T10:37:38;28.60;67.80
47252;DHT22;32991;51.374;11.586;2022-07-22T10:45:57;29.20;68.30
47252;DHT22;32991;51.374;11.586;2022-07-22T10:48:44;29.60;66.60
47252;DHT22;32991;51.374;11.586;2022-07-22T10:51:29;29.20;67.50
47252;DHT22;32991;51.374;11.586;2022-07-22T10:53:58;28.90;67.90
47252;DHT22;32991;51.374;11.586;2022-07-22T10:56:34;28.80;68.30
47252;DHT22;32991;51.374;11.586;2022-07-22T10:59:16;28.80;68.00
47252;DHT22;32991;51.374;11.586;2022-07-22T11:01:49;29.00;68.00
47252;DHT22;32991;51.374;11.586;2022-07-22T11:04:20;29.50;67.40
47252;DHT22;32991;51.374;11.586;2022-07-22T11:06:50;29.50;66.80
47252;DHT22;32991;51.374;11.586;2022-07-22T11:09:19;29.30;67.40
47252;DHT22;32991;51.374;11.586;2022-07-22T11:11:51;29.30;67.40
47252;DHT22;32991;51.374;11.586;2022-07-22T11:14:30;29.30;67.30
47252;DHT22;32991;51.374;11.586;2022-07-22T11:17:03;29.20;67.30
47252;DHT22;32991;51.374;11.586;2022-07-22T11:19:31;29.20;67.80
47252;DHT22;32991;51.374;11.586;2022-07-22T11:22:07;29.10;68.10
47252;DHT22;32991;51.374;11.586;2022-07-22T11:24:35;29.10;69.10
47252;DHT22;32991;51.374;11.586;2022-07-22T11:27:03;29.10;67.60
47252;DHT22;32991;51.374;11.586;2022-07-22T11:29:39;29.10;68.70
47252;DHT22;32991;51.374;11.586;2022-07-22T11:32:09;29.30;69.10
47252;DHT22;32991;51.374;11.586;2022-07-22T11:34:38;29.30;69.30
47252;DHT22;32991;51.374;11.586;2022-07-22T11:37:09;29.50;69.20
47252;DHT22;32991;51.374;11.586;2022-07-22T11:39:35;29.70;69.30
47252;DHT22;32991;51.374;11.586;2022-07-22T11:42:02;30.70;68.10
47252;DHT22;32991;51.374;11.586;2022-07-22T11:44:31;31.60;66.10
47252;DHT22;32991;51.374;11.586;2022-07-22T11:46:59;31.70;65.10
47252;DHT22;32991;51.374;11.586;2022-07-22T11:49:28;31.40;65.20
47252;DHT22;32991;51.374;11.586;2022-07-22T11:51:56;31.20;65.40
47252;DHT22;32991;51.374;11.586;2022-07-22T11:54:23;31.10;65.60
47252;DHT22;32991;51.374;11.586;2022-07-22T11:56:50;31.00;65.60
47252;DHT22;32991;51.374;11.586;2022-07-22T11:59:23;31.50;65.20
47252;DHT22;32991;51.374;11.586;2022-07-22T12:01:50;32.80;63.40
47252;DHT22;32991;51.374;11.586;2022-07-22T12:04:21;33.80;61.80
47252;DHT22;32991;51.374;11.586;2022-07-22T12:06:49;35.30;59.60
47252;DHT22;32991;51.374;11.586;2022-07-22T12:09:22;36.80;56.90
47252;DHT22;32991;51.374;11.586;2022-07-22T12:11:51;37.90;55.00
47252;DHT22;32991;51.374;11.586;2022-07-22T12:14:21;38.30;54.00
47252;DHT22;32991;51.374;11.586;2022-07-22T12:16:57;38.60;53.50
47252;DHT22;32991;51.374;11.586;2022-07-22T12:19:24;39.20;52.70
47252;DHT22;32991;51.374;11.586;2022-07-22T12:22:19;39.70;51.40
47252;DHT22;32991;51.374;11.586;2022-07-22T12:24:46;39.70;50.30
47252;DHT22;32991;51.374;11.586;2022-07-22T12:27:14;38.60;50.90
47252;DHT22;32991;51.374;11.586;2022-07-22T12:29:46;37.00;52.00
47252;DHT22;32991;51.374;11.586;2022-07-22T12:34:57;34.50;55.40
47252;DHT22;32991;51.374;11.586;2022-07-22T12:37:27;33.60;56.90
47252;DHT22;32991;51.374;11.586;2022-07-22T12:40:07;32.80;58.10
47252;DHT22;32991;51.374;11.586;2022-07-22T12:42:40;32.50;58.90
47252;DHT22;32991;51.374;11.586;2022-07-22T12:45:16;32.60;58.70
47252;DHT22;32991;51.374;11.586;2022-07-22T12:47:47;32.80;58.60
47252;DHT22;32991;51.374;11.586;2022-07-22T12:53:10;32.20;59.20
47252;DHT22;32991;51.374;11.586;2022-07-22T12:55:51;31.80;59.90
47252;DHT22;32991;51.374;11.586;2022-07-22T12:58:19;31.70;60.10
47252;DHT22;32991;51.374;11.586;2022-07-22T13:00:50;31.80;60.00
47252;DHT22;32991;51.374;11.586;2022-07-22T13:03:18;31.70;60.10
47252;DHT22;32991;51.374;11.586;2022-07-22T13:05:57;32.60;59.50
47252;DHT22;32991;51.374;11.586;2022-07-22T13:08:25;33.50;57.80
47252;DHT22;32991;51.374;11.586;2022-07-22T13:10:56;33.90;57.30
47252;DHT22;32991;51.374;11.586;2022-07-22T13:13:23;34.30;56.50
47252;DHT22;32991;51.374;11.586;2022-07-22T13:15:50;33.70;56.80
47252;DHT22;32991;51.374;11.586;2022-07-22T13:18:18;32.90;57.80
47252;DHT22;32991;51.374;11.586;2022-07-22T13:20:45;32.30;58.70
47252;DHT22;32991;51.374;11.586;2022-07-22T13:23:13;31.80;58.90
47252;DHT22;32991;51.374;11.586;2022-07-22T13:25:40;31.30;59.70
47252;DHT22;32991;51.374;11.586;2022-07-22T13:28:07;31.00;60.50
47252;DHT22;32991;51.374;11.586;2022-07-22T13:30:34;31.00;60.50
47252;DHT22;32991;51.374;11.586;2022-07-22T13:33:01;31.10;60.60
47252;DHT22;32991;51.374;11.586;2022-07-22T13:35:27;31.30;60.30
47252;DHT22;32991;51.374;11.586;2022-07-22T13:37:56;31.80;59.50
47252;DHT22;32991;51.374;11.586;2022-07-22T13:40:24;32.40;59.00
47252;DHT22;32991;51.374;11.586;2022-07-22T13:42:51;32.80;58.40
47252;DHT22;32991;51.374;11.586;2022-07-22T13:45:18;32.70;58.40
47252;DHT22;32991;51.374;11.586;2022-07-22T13:47:44;32.40;58.20
47252;DHT22;32991;51.374;11.586;2022-07-22T13:50:11;32.00;58.70
47252;DHT22;32991;51.374;11.586;2022-07-22T13:52:38;31.70;59.20
47252;DHT22;32991;51.374;11.586;2022-07-22T13:55:05;31.50;59.20
47252;DHT22;32991;51.374;11.586;2022-07-22T13:57:33;31.20;59.60
47252;DHT22;32991;51.374;11.586;2022-07-22T14:00:01;30.90;59.90
47252;DHT22;32991;51.374;11.586;2022-07-22T14:02:28;30.60;60.60
47252;DHT22;32991;51.374;11.586;2022-07-22T14:04:55;30.30;61.10
47252;DHT22;32991;51.374;11.586;2022-07-22T14:07:22;30.20;61.20
47252;DHT22;32991;51.374;11.586;2022-07-22T14:09:49;30.30;61.10
47252;DHT22;32991;51.374;11.586;2022-07-22T14:12:15;30.50;60.90
47252;DHT22;32991;51.374;11.586;2022-07-22T14:14:43;30.50;60.70
47252;DHT22;32991;51.374;11.586;2022-07-22T14:17:10;30.50;60.40
47252;DHT22;32991;51.374;11.586;2022-07-22T14:19:37;30.50;60.60
47252;DHT22;32991;51.374;11.586;2022-07-22T14:22:04;30.50;60.40
47252;DHT22;32991;51.374;11.586;2022-07-22T14:24:31;30.40;60.90
47252;DHT22;32991;51.374;11.586;2022-07-22T14:26:58;30.70;60.30
47252;DHT22;32991;51.374;11.586;2022-07-22T14:29:25;31.10;59.70
47252;DHT22;32991;51.374;11.586;2022-07-22T14:31:52;31.50;59.10
47252;DHT22;32991;51.374;11.586;2022-07-22T14:34:18;31.60;58.90
47252;DHT22;32991;51.374;11.586;2022-07-22T14:36:46;31.30;58.10
47252;DHT22;32991;51.374;11.586;2022-07-22T14:39:13;30.80;59.30
47252;DHT22;32991;51.374;11.586;2022-07-22T14:41:40;30.30;61.10
47252;DHT22;32991;51.374;11.586;2022-07-22T14:44:07;30.10;62.00
47252;DHT22;32991;51.374;11.586;2022-07-22T14:46:33;30.50;61.80
47252;DHT22;32991;51.374;11.586;2022-07-22T14:49:00;30.90;60.80
47252;DHT22;32991;51.374;11.586;2022-07-22T14:51:28;31.30;60.20
47252;DHT22;32991;51.374;11.586;2022-07-22T14:53:54;31.50;60.10
47252;DHT22;32991;51.374;11.586;2022-07-22T14:56:22;31.50;60.10
47252;DHT22;32991;51.374;11.586;2022-07-22T14:58:49;31.50;59.90
47252;DHT22;32991;51.374;11.586;2022-07-22T15:01:15;31.60;60.00
47252;DHT22;32991;51.374;11.586;2022-07-22T15:03:42;32.00;59.40
47252;DHT22;32991;51.374;11.586;2022-07-22T15:06:09;32.30;58.80
47252;DHT22;32991;51.374;11.586;2022-07-22T15:08:37;32.30;58.10
47252;DHT22;32991;51.374;11.586;2022-07-22T15:11:04;32.30;58.10
47252;DHT22;32991;51.374;11.586;2022-07-22T15:13:31;32.30;58.30
47252;DHT22;32991;51.374;11.586;2022-07-22T15:15:58;32.30;58.40
47252;DHT22;32991;51.374;11.586;2022-07-22T15:18:25;32.20;58.00
47252;DHT22;32991;51.374;11.586;2022-07-22T15:20:52;32.00;58.80
47252;DHT22;32991;51.374;11.586;2022-07-22T15:23:25;31.80;58.30
47252;DHT22;32991;51.374;11.586;2022-07-22T15:26:01;31.50;58.80
47252;DHT22;32991;51.374;11.586;2022-07-22T15:28:29;31.20;58.90
47252;DHT22;32991;51.374;11.586;2022-07-22T15:31:00;30.80;59.30
47252;DHT22;32991;51.374;11.586;2022-07-22T15:33:27;30.60;59.70
47252;DHT22;32991;51.374;11.586;2022-07-22T15:36:07;30.50;61.10
47252;DHT22;32991;51.374;11.586;2022-07-22T15:38:37;30.50;60.80
47252;DHT22;32991;51.374;11.586;2022-07-22T15:41:04;30.30;61.00
47252;DHT22;32991;51.374;11.586;2022-07-22T15:43:31;30.30;61.30
47252;DHT22;32991;51.374;11.586;2022-07-22T15:45:58;30.20;61.70
47252;DHT22;32991;51.374;11.586;2022-07-22T15:48:25;30.30;61.80
47252;DHT22;32991;51.374;11.586;2022-07-22T15:50:52;30.20;62.10
47252;DHT22;32991;51.374;11.586;2022-07-22T15:53:23;30.00;62.20
47252;DHT22;32991;51.374;11.586;2022-07-22T15:55:50;30.00;62.40